Flight Track Log - Related Links

Times and Time Zones

All times are in EDT time to prevent confusion due to time zone crossing. See the SWA158 flight status page for this flight to view local times or setup timezone preferences in your user account.

Time Position Orientation Groundspeed Altitude Reporting Facility
EDT Latitude Longitude Course Direction KTS MPH feet Rate Location/Type
Sun 02:26:55 PM 41.7856 -87.5881 80° East 237 273 5,000  Level Chicago Center
Sun 02:27:57 PM 41.7864 -87.4642 89° East 267 307 7,000 2,903 Climbing Chicago Center
Sun 02:28:59 PM 41.7786 -87.3550 95° East 290 334 11,000 3,677 Climbing Chicago Center
Sun 02:30:01 PM 41.7714 -87.2411 95° East 305 351 14,600 3,387 Climbing Chicago Center
Sun 02:31:03 PM 41.7647 -87.1208 94° East 321 369 18,000 2,274 Climbing Chicago Center
Sun 02:32:05 PM 41.7661 -86.9872 89° East 365 420 19,300 1,403 Climbing Chicago Center
Sun 02:33:07 PM 41.7831 -86.8383 81° East 402 463 20,900 1,790 Climbing Chicago Center
Sun 02:34:09 PM 41.8253 -86.6583 72° East 456 525 23,000 1,984 Climbing Chicago Center
Sun 02:35:11 PM 41.8678 -86.4886 71° East 477 549 25,000 1,935 Climbing Chicago Center
Sun 02:36:13 PM 41.8856 -86.3081 82° East 494 568 27,000 2,081 Climbing Chicago Center
Sun 02:37:15 PM 41.8972 -86.1267 85° East 489 563 29,300 1,887 Climbing Chicago Center
Sun 02:38:17 PM 41.9114 -85.9053 85° East 496 571 30,900 1,645 Climbing Chicago Center
Sun 02:39:19 PM 41.9389 -85.7169 79° East 508 585 32,700 1,887 Climbing Chicago Center
Sun 02:40:21 PM 41.9642 -85.5303 80° East 505 581 34,800 1,790 Climbing Chicago Center
Sun 02:41:23 PM 41.9911 -85.3486 79° East 494 568 36,400 1,355 Climbing Chicago Center
Sun 02:42:25 PM 42.0192 -85.1528 79° East 497 572 37,600 1,152 Climbing Chicago Center
Sun 02:43:28 PM 42.0364 -84.9786 82° East 493 567 38,800 683 Climbing Cleveland Center
Sun 02:44:28 PM 42.0472 -84.7947 85° East 487 560 39,000 100 Climbing Cleveland Center
Sun 02:45:28 PM 42.0558 -84.6133 86° East 487 560 39,000  Level Cleveland Center
Sun 02:46:28 PM 42.0664 -84.4294 86° East 487 560 39,000  Level Cleveland Center
Sun 02:47:28 PM 42.0689 -84.2281 89° East 487 560 39,000  Level Cleveland Center
Sun 02:48:28 PM 42.0789 -84.0411 86° East 487 560 39,000  Level Cleveland Center
Sun 02:49:28 PM 42.0864 -83.8569 87° East 492 566 39,000  Level Cleveland Center
Sun 02:50:28 PM 42.0933 -83.6781 87° East 492 566 39,000  Level Cleveland Center
Sun 02:51:28 PM 42.1003 -83.4908 87° East 492 566 39,000  Level Cleveland Center
Sun 02:52:28 PM 42.1069 -83.3064 87° East 492 566 39,000  Level Cleveland Center
Sun 02:53:28 PM 42.1128 -83.1389 87° East 492 566 39,000  Level Cleveland Center
Sun 02:54:28 PM 42.1189 -82.9569 87° East 492 566 39,000  Level Cleveland Center
Sun 02:55:28 PM 42.1244 -82.7725 88° East 492 566 39,000  Level Cleveland Center
Sun 02:56:28 PM 42.1322 -82.5878 87° East 492 566 39,000  Level Cleveland Center
Sun 02:57:28 PM 42.1372 -82.4006 88° East 492 566 39,000  Level Cleveland Center
Sun 02:58:28 PM 42.1422 -82.2158 88° East 497 572 39,000  Level Cleveland Center
Sun 02:59:28 PM 42.1489 -82.0283 87° East 497 572 39,000  Level Cleveland Center
Sun 03:00:28 PM 42.1553 -81.8408 87° East 497 572 39,000  Level Cleveland Center
Sun 03:01:28 PM 42.1592 -81.6503 88° East 497 572 39,000  Level Cleveland Center
Sun 03:02:28 PM 42.1631 -81.4628 88° East 497 572 39,000  Level Cleveland Center
Sun 03:03:28 PM 42.1642 -81.2778 89° East 497 572 39,000  Level Cleveland Center
Sun 03:04:28 PM 42.1717 -81.0706 87° East 497 572 39,000  Level Cleveland Center
Sun 03:05:28 PM 42.1742 -80.8831 89° East 497 572 39,000  Level Cleveland Center
Sun 03:06:28 PM 42.1767 -80.6925 89° East 497 572 39,000  Level Cleveland Center
Sun 03:07:28 PM 42.1789 -80.5019 89° East 503 579 39,000  Level Cleveland Center
Sun 03:08:28 PM 42.1806 -80.3114 89° East 503 579 39,000  Level Cleveland Center
Sun 03:09:28 PM 42.1842 -80.1236 88° East 503 579 39,000  Level Cleveland Center
Sun 03:10:28 PM 42.1833 -79.9556 90° East 507 583 39,000  Level Cleveland Center
Sun 03:11:28 PM 42.1864 -79.7650 89° East 507 583 39,000  Level Cleveland Center
Sun 03:12:28 PM 42.1889 -79.5744 89° East 507 583 39,000  Level Cleveland Center
Sun 03:13:28 PM 42.1892 -79.3836 90° East 502 578 39,000  Level Cleveland Center
Sun 03:14:28 PM 42.1872 -79.1933 91° East 502 578 39,000  Level Cleveland Center
Sun 03:15:28 PM 42.2036 -79.0050 83° East 509 586 39,000  Level Cleveland Center
Sun 03:16:28 PM 42.2317 -78.7914 80° East 519 597 39,000  Level Cleveland Center
Sun 03:17:28 PM 42.2556 -78.5969 81° East 524 603 39,000  Level Cleveland Center
Sun 03:18:28 PM 42.2814 -78.4081 79° East 524 603 39,000  Level Cleveland Center
Sun 03:19:28 PM 42.3025 -78.2136 82° East 524 603 39,000  Level Cleveland Center
Sun 03:20:28 PM 42.3256 -78.0219 81° East 524 603 39,000  Level Cleveland Center
Sun 03:21:28 PM 42.3503 -77.8269 80° East 524 603 39,000  Level Cleveland Center
Sun 03:22:28 PM 42.3725 -77.6319 81° East 524 603 39,000  Level Cleveland Center
Sun 03:23:28 PM 42.3944 -77.4369 81° East 524 603 39,000  Level Cleveland Center
Sun 03:25:51 PM 42.4447 -76.9875 81° East 529 609 39,000  Level Boston Center
Sun 03:26:51 PM 42.4650 -76.7919 82° East 529 609 39,000  Level Boston Center
Sun 03:27:51 PM 42.4869 -76.5964 81° East 529 609 39,000  Level Boston Center
Sun 03:28:51 PM 42.5064 -76.3975 82° East 529 609 39,000  Level Boston Center
Sun 03:29:51 PM 42.5297 -76.2017 81° East 529 609 39,000  Level Boston Center
Sun 03:30:51 PM 42.5467 -76.0056 83° East 529 609 39,000  Level Boston Center
Sun 03:31:51 PM 42.5672 -75.8064 82° East 529 609 39,000  Level Boston Center
Sun 03:32:51 PM 42.5875 -75.6100 82° East 529 609 39,000  Level Boston Center
Sun 03:33:51 PM 42.6053 -75.4133 83° East 529 609 39,000 -550 Level Boston Center
Sun 03:34:51 PM 42.6250 -75.2139 82° East 529 609 37,900 -1,750 Descending Boston Center
Sun 03:35:51 PM 42.6419 -75.0200 83° East 529 609 35,500 -3,100 Descending Boston Center
Sun 03:36:51 PM 42.6589 -74.8231 83° East 517 595 31,700 -3,250 Descending Boston Center
Sun 03:37:51 PM 42.6778 -74.6092 83° East 527 606 29,000 -1,400 Descending Boston Center
Sun 03:38:51 PM 42.6958 -74.4203 83° East 522 601 28,900 -550 Descending Boston Center
Sun 03:39:51 PM 42.7114 -74.2344 83° East 501 577 27,900 -1,000 Descending Boston Center
Sun 03:40:51 PM 42.7244 -74.0567 84° East 489 563 26,900 -1,000 Descending Boston Center
Sun 03:41:51 PM 42.7394 -73.8733 84° East 484 557 25,900 -1,000 Descending Boston Center
Sun 03:42:51 PM 42.7519 -73.6983 84° East 478 550 24,900 -900 Descending Boston Center
Sun 03:43:51 PM 42.7578 -73.5428 87° East 472 543 24,100 -1,050 Descending Boston Center
Sun 03:44:51 PM 42.7633 -73.3706 87° East 460 529 22,800 -1,450 Descending Boston Center
Sun 03:45:51 PM 42.7689 -73.2036 87° East 454 522 21,200 -1,600 Descending Boston Center
Sun 03:46:51 PM 42.7739 -73.0425 88° East 439 505 19,600 -1,200 Descending Boston Center
Sun 03:47:51 PM 42.7789 -72.8869 87° East 419 482 18,800 -900 Descending Boston Center
Sun 03:48:51 PM 42.7836 -72.7342 88° East 414 476 17,800 -850 Descending Boston Center
Sun 03:49:51 PM 42.7881 -72.5814 88° East 403 464 17,100 -1,450 Descending Boston Center
Sun 03:50:51 PM 42.7900 -72.4344 89° East 397 457 14,900 -2,100 Descending Boston Center
Sun 03:51:51 PM 42.7964 -72.2900 87° East 384 442 12,900 -2,050 Descending Boston Center
Sun 03:52:51 PM 42.8064 -72.1458 85° East 352 405 10,800 -1,318 Descending Boston Center
Sun 03:54:03 PM 42.8144 -72.0325 84° East 335 386 10,000 -1,141 Descending Boston Center
Sun 03:55:34 PM 42.8167 -71.8333 89° East 280 322 7,700 -1,400 Descending KA90
Sun 03:56:03 PM 42.8111 -71.7978 102° East 280 322 7,200 -1,146 Descending Boston Center
Sun 03:57:03 PM 42.8044 -71.7100 96° East 267 307 6,000 -1,409 Descending Boston Center
Sun 03:58:15 PM 42.8139 -71.5853 84° East 244 281 4,100 -1,227 Descending Boston Center
Sun 03:59:15 PM 42.8239 -71.5172 79° East 212 244 3,300 -800 Descending Boston Center
Sun 04:00:15 PM 42.8336 -71.4436 80° East 184 212 2,500 -600 Descending Boston Center
Sun 04:01:15 PM 42.8500 -71.3950 65° Northeast 159 183 2,100 -700 Descending Boston Center
Sun 04:02:15 PM 42.8875 -71.4058 348° North 102 117 1,100 8,450 Descending Boston Center
Sun 04:03:15 PM 42.9169 -71.4222 338° Northwest 114 131 19,000 8,950 Climbing Boston Center
Sun 04:04:15 PM 42.9503 -71.4331 347° North 114 131 19,000  Level Boston Center
Sun 04:05:15 PM 42.9817 -71.4467 342° North 114 131 19,000  Level Boston Center
Sun 04:06:15 PM 43.0131 -71.4606 342° North 114 131 19,000  Level Boston Center
Sun 04:08:00 PM 42.9328 -71.4358 180° South  Level Estimated
Sun 04:15:00 PM 42.9328 -71.4358 180° South  Level Estimated
Sun 04:16:00 PM 42.9328 -71.4358 180° South  Level Estimated
Sun 04:17:00 PM 42.9328 -71.4358 180° South  Level Estimated
Sun 04:18:00 PM 42.9328 -71.4358 180° South  Level Estimated
Sun 04:19:00 PM 42.9328 -71.4358 180° South  Level Estimated
Sun 04:20:00 PM 42.9328 -71.4358 180° South  Level Estimated

Login

Don't have an account? Register now (free) for customized features, flight alerts, and more!